createdAt,value
2017-10-17T00:02:02.349Z,99.90
2017-10-17T00:04:31.155Z,99.90
2017-10-17T00:06:59.946Z,99.90
2017-10-17T00:09:28.871Z,99.90
2017-10-17T00:11:57.655Z,99.90
2017-10-17T00:14:26.462Z,99.90
2017-10-17T00:16:55.307Z,99.90
2017-10-17T00:19:24.110Z,99.90
2017-10-17T00:21:52.901Z,99.90
2017-10-17T00:24:21.758Z,99.90
2017-10-17T00:26:50.552Z,99.90
2017-10-17T00:29:19.162Z,99.90
2017-10-17T00:31:48.055Z,99.90
2017-10-17T00:34:16.865Z,99.90
2017-10-17T00:36:45.647Z,99.90
2017-10-17T00:39:14.502Z,99.90
2017-10-17T00:41:43.326Z,99.90
2017-10-17T00:44:12.893Z,99.90
2017-10-17T00:46:41.691Z,99.90
2017-10-17T00:49:14.050Z,99.90
2017-10-17T00:51:42.839Z,99.90
2017-10-17T00:54:11.627Z,99.90
2017-10-17T00:56:40.444Z,99.90
2017-10-17T00:59:09.258Z,99.90
2017-10-17T01:01:38.047Z,99.90
2017-10-17T01:04:06.887Z,99.90
2017-10-17T01:06:35.502Z,99.90
2017-10-17T01:09:04.317Z,99.90
2017-10-17T01:11:33.319Z,99.90
2017-10-17T01:14:02.139Z,99.90
2017-10-17T01:16:31.710Z,99.90
2017-10-17T01:19:00.560Z,99.90
2017-10-17T01:21:29.375Z,99.90
2017-10-17T01:23:58.957Z,99.90
2017-10-17T01:26:27.801Z,99.90
2017-10-17T01:29:06.142Z,99.90
2017-10-17T01:31:34.986Z,99.90
2017-10-17T01:34:03.781Z,99.90
2017-10-17T01:36:32.562Z,99.90
2017-10-17T01:39:04.295Z,99.90
2017-10-17T01:41:33.084Z,99.90
2017-10-17T01:44:06.518Z,99.90
2017-10-17T01:46:41.961Z,99.90
2017-10-17T01:49:14.960Z,99.90
2017-10-17T01:51:47.339Z,99.90
2017-10-17T01:54:21.373Z,99.90
2017-10-17T01:56:50.379Z,99.90
2017-10-17T01:59:19.974Z,99.90
2017-10-17T02:01:48.818Z,99.90
2017-10-17T02:04:17.626Z,99.90
2017-10-17T02:06:47.184Z,99.90
2017-10-17T02:09:16.123Z,99.90
2017-10-17T02:11:44.907Z,99.90
2017-10-17T02:14:13.685Z,99.90
2017-10-17T02:16:42.513Z,99.90
2017-10-17T02:19:12.231Z,99.90
2017-10-17T02:21:43.628Z,99.90
2017-10-17T02:24:12.410Z,99.90
2017-10-17T02:26:41.023Z,99.90
2017-10-17T02:32:03.983Z,99.90
2017-10-17T02:34:36.166Z,99.90
2017-10-17T02:37:05.747Z,99.90
2017-10-17T02:39:34.537Z,99.90
2017-10-17T02:42:03.347Z,99.90
2017-10-17T02:44:32.906Z,99.90
2017-10-17T02:47:01.734Z,99.90
2017-10-17T02:49:31.440Z,99.90
2017-10-17T02:52:01.059Z,99.90
2017-10-17T02:54:30.664Z,99.90
2017-10-17T02:56:59.487Z,99.90
2017-10-17T02:59:29.014Z,99.90
2017-10-17T03:01:57.823Z,99.90
2017-10-17T03:04:27.527Z,99.90
2017-10-17T03:06:56.348Z,99.90
2017-10-17T03:09:25.998Z,99.90
2017-10-17T03:11:54.590Z,99.90
2017-10-17T03:14:25.365Z,99.90
2017-10-17T03:16:54.154Z,99.90
2017-10-17T03:19:22.957Z,99.90
2017-10-17T03:22:03.358Z,99.90
2017-10-17T03:24:54.648Z,99.90
2017-10-17T03:27:24.240Z,99.90
2017-10-17T03:29:53.270Z,99.90
2017-10-17T03:32:22.591Z,99.90
2017-10-17T03:34:52.660Z,99.90
2017-10-17T03:37:33.606Z,99.90
2017-10-17T03:43:08.262Z,99.90
2017-10-17T03:45:36.892Z,99.90
2017-10-17T03:48:13.026Z,99.90
2017-10-17T03:50:41.683Z,99.90
2017-10-17T03:53:21.919Z,99.90
2017-10-17T03:55:51.088Z,99.90
2017-10-17T03:58:20.366Z,99.90
2017-10-17T04:00:48.942Z,99.90
2017-10-17T04:03:17.529Z,99.90
2017-10-17T04:05:51.957Z,99.90
2017-10-17T04:08:30.157Z,99.90
2017-10-17T04:14:13.669Z,99.90
2017-10-17T04:16:59.557Z,99.90
2017-10-17T04:19:49.627Z,99.90
2017-10-17T04:22:31.423Z,99.90
2017-10-17T04:25:21.507Z,99.90
2017-10-17T04:30:48.164Z,99.90
2017-10-17T04:33:23.361Z,99.90
2017-10-17T04:35:53.458Z,99.90
2017-10-17T04:38:22.040Z,99.90
2017-10-17T04:40:51.344Z,99.90
2017-10-17T04:43:31.896Z,99.90
2017-10-17T04:46:17.798Z,99.90
2017-10-17T04:48:58.841Z,99.90
2017-10-17T04:51:32.003Z,99.90
2017-10-17T04:57:06.544Z,99.90
2017-10-17T04:59:42.979Z,99.90
2017-10-17T05:05:12.751Z,99.90
2017-10-17T05:07:44.099Z,99.90
2017-10-17T05:13:09.587Z,99.90
2017-10-17T05:15:39.736Z,99.90
2017-10-17T05:18:37.858Z,99.90
2017-10-17T05:21:06.530Z,99.90
2017-10-17T05:26:28.370Z,99.90
2017-10-17T05:29:00.746Z,99.90
2017-10-17T05:31:31.255Z,99.90
2017-10-17T05:34:15.271Z,99.90
2017-10-17T05:36:45.986Z,99.90
2017-10-17T05:39:15.317Z,99.90
2017-10-17T05:41:43.723Z,99.90
2017-10-17T05:44:17.837Z,99.90
2017-10-17T05:46:48.450Z,99.90
2017-10-17T05:49:17.019Z,99.90
2017-10-17T05:51:45.575Z,99.90
2017-10-17T05:54:15.579Z,99.90
2017-10-17T05:56:44.859Z,99.90
2017-10-17T05:59:14.096Z,99.90
2017-10-17T06:01:44.053Z,99.90
2017-10-17T06:04:13.120Z,99.90
2017-10-17T06:06:43.155Z,99.90
2017-10-17T06:09:12.411Z,99.90
2017-10-17T06:11:41.637Z,99.90
2017-10-17T06:14:11.686Z,99.90
2017-10-17T06:16:41.373Z,99.90
2017-10-17T06:19:11.096Z,99.90
2017-10-17T06:21:40.775Z,99.90
2017-10-17T06:24:10.189Z,99.90
2017-10-17T06:26:39.899Z,99.90
2017-10-17T06:29:09.615Z,99.90
2017-10-17T06:31:39.435Z,99.90
2017-10-17T06:34:09.110Z,99.90
2017-10-17T06:36:38.838Z,99.90
2017-10-17T06:39:08.337Z,99.90
2017-10-17T06:41:37.844Z,99.90
2017-10-17T06:44:07.234Z,99.90
2017-10-17T06:46:37.716Z,99.90
2017-10-17T06:49:06.763Z,99.90
2017-10-17T06:51:36.459Z,99.90
2017-10-17T06:54:06.579Z,99.90
2017-10-17T06:56:37.035Z,99.90
2017-10-17T06:59:06.654Z,99.90
2017-10-17T07:01:36.019Z,99.90
2017-10-17T07:04:06.136Z,99.90
2017-10-17T07:06:36.629Z,99.90
2017-10-17T07:09:05.955Z,99.90
2017-10-17T07:11:36.255Z,99.90
2017-10-17T07:14:05.979Z,99.90
2017-10-17T07:16:35.201Z,99.90
2017-10-17T07:19:05.696Z,99.90
2017-10-17T07:21:35.873Z,99.90
2017-10-17T07:24:05.438Z,99.90
2017-10-17T07:26:34.553Z,99.90
2017-10-17T07:29:03.969Z,99.90
2017-10-17T07:31:33.719Z,99.90
2017-10-17T07:34:03.405Z,99.90
2017-10-17T07:36:32.839Z,99.90
2017-10-17T07:39:02.828Z,99.90
2017-10-17T07:41:32.236Z,99.90
2017-10-17T07:44:01.304Z,99.90
2017-10-17T07:46:30.736Z,99.90
2017-10-17T07:48:59.808Z,99.90
2017-10-17T07:51:28.883Z,99.90
2017-10-17T07:53:58.333Z,99.90
2017-10-17T07:56:27.739Z,99.90
2017-10-17T07:58:56.457Z,99.90
2017-10-17T08:01:26.646Z,99.90
2017-10-17T08:03:55.890Z,99.90
2017-10-17T08:06:24.845Z,99.90
2017-10-17T08:08:53.578Z,99.90
2017-10-17T08:11:22.287Z,99.90
2017-10-17T08:13:51.200Z,99.90
2017-10-17T08:16:20.649Z,99.90
2017-10-17T08:18:50.439Z,99.90
2017-10-17T08:21:21.534Z,99.90
2017-10-17T08:23:51.716Z,99.90
2017-10-17T08:26:21.131Z,99.90
2017-10-17T08:28:50.597Z,99.90
2017-10-17T08:31:20.021Z,99.90
2017-10-17T08:33:50.219Z,99.90
2017-10-17T08:36:19.643Z,99.90
2017-10-17T08:38:49.855Z,99.90
2017-10-17T08:41:19.688Z,99.90
2017-10-17T08:43:49.379Z,99.90
2017-10-17T08:46:18.784Z,99.90
2017-10-17T08:48:47.998Z,99.90
2017-10-17T08:51:18.227Z,99.90
2017-10-17T08:53:48.538Z,99.90
2017-10-17T08:56:18.708Z,99.90
2017-10-17T08:58:48.510Z,99.90
2017-10-17T09:01:17.903Z,99.90
2017-10-17T09:03:47.140Z,99.90
2017-10-17T09:06:16.591Z,99.90
2017-10-17T09:08:46.788Z,99.90
2017-10-17T09:11:16.231Z,99.90
2017-10-17T09:13:45.670Z,99.90
2017-10-17T09:16:15.089Z,99.90
2017-10-17T09:18:44.357Z,99.90
2017-10-17T09:21:13.567Z,99.90
2017-10-17T09:23:42.784Z,99.60
2017-10-17T09:26:12.233Z,99.50
2017-10-17T09:28:41.651Z,99.90
2017-10-17T09:31:11.089Z,99.90
2017-10-17T09:33:40.542Z,99.90
2017-10-17T09:36:10.702Z,99.90
2017-10-17T09:38:40.125Z,99.90
2017-10-17T09:41:09.549Z,99.90
2017-10-17T09:43:39.731Z,99.90
2017-10-17T09:46:09.190Z,99.90
2017-10-17T09:48:39.384Z,99.90
2017-10-17T09:51:09.573Z,99.90
2017-10-17T09:53:39.643Z,99.90
2017-10-17T09:56:09.835Z,99.90
2017-10-17T09:58:38.896Z,99.90
2017-10-17T10:01:08.311Z,99.90
2017-10-17T10:03:37.764Z,99.90
2017-10-17T10:06:07.804Z,99.90
2017-10-17T10:08:37.019Z,99.90
2017-10-17T10:11:06.432Z,99.90
2017-10-17T10:13:35.900Z,99.90
2017-10-17T10:16:06.083Z,99.90
2017-10-17T10:18:35.606Z,99.90
2017-10-17T10:21:05.019Z,99.90
2017-10-17T10:23:35.221Z,99.90
2017-10-17T10:26:04.637Z,99.90
2017-10-17T10:28:34.600Z,99.90
2017-10-17T10:31:04.031Z,99.90
2017-10-17T10:33:33.474Z,99.90
2017-10-17T10:36:03.646Z,99.90
2017-10-17T10:38:33.638Z,99.90
2017-10-17T10:41:03.749Z,99.90
2017-10-17T10:43:33.280Z,99.90
2017-10-17T10:46:02.901Z,99.90
2017-10-17T10:48:33.149Z,99.80
2017-10-17T10:51:02.572Z,99.80
2017-10-17T10:53:32.812Z,99.60
2017-10-17T10:56:02.232Z,99.60
2017-10-17T10:58:31.458Z,99.50
2017-10-17T11:01:00.923Z,98.90
2017-10-17T11:03:30.321Z,98.30
2017-10-17T11:06:00.506Z,98.00
2017-10-17T11:08:29.962Z,97.90
2017-10-17T11:10:59.398Z,96.60
2017-10-17T11:13:28.831Z,96.30
2017-10-17T11:15:58.279Z,95.40
2017-10-17T11:18:27.690Z,92.70
2017-10-17T11:20:58.009Z,90.20
2017-10-17T11:23:29.035Z,78.20
2017-10-17T11:25:59.219Z,78.30
2017-10-17T11:28:28.893Z,70.70
2017-10-17T11:30:58.117Z,66.90
2017-10-17T11:33:27.527Z,60.10
2017-10-17T11:35:57.026Z,54.20
2017-10-17T11:38:26.424Z,52.10
2017-10-17T11:41:07.102Z,51.10
2017-10-17T11:43:45.539Z,53.50
2017-10-17T11:46:15.547Z,51.50
2017-10-17T11:48:45.828Z,48.80
2017-10-17T11:51:15.299Z,48.80
2017-10-17T11:53:44.712Z,48.50
2017-10-17T11:56:14.137Z,47.50
2017-10-17T11:58:43.446Z,46.10
2017-10-17T12:01:12.845Z,45.00
2017-10-17T12:03:42.279Z,45.20
2017-10-17T12:06:11.687Z,45.60
2017-10-17T12:08:41.099Z,45.50
2017-10-17T12:11:10.962Z,46.20
2017-10-17T12:13:39.668Z,46.20
2017-10-17T12:16:09.072Z,45.00
2017-10-17T12:18:39.314Z,46.50
2017-10-17T12:21:08.403Z,46.50
2017-10-17T12:23:37.804Z,46.40
2017-10-17T12:26:07.274Z,46.10
2017-10-17T12:28:36.706Z,46.40
2017-10-17T12:31:05.805Z,46.00
2017-10-17T12:33:35.201Z,46.40
2017-10-17T12:36:04.623Z,46.40
2017-10-17T12:38:34.623Z,46.30
2017-10-17T12:41:04.061Z,45.50
2017-10-17T12:43:34.270Z,46.10
2017-10-17T12:46:03.600Z,46.10
2017-10-17T12:48:33.480Z,46.80
2017-10-17T12:51:02.874Z,46.80
2017-10-17T12:53:32.122Z,46.90
2017-10-17T12:56:02.302Z,45.00
2017-10-17T12:58:31.583Z,44.90
2017-10-17T13:01:01.016Z,44.90
2017-10-17T13:03:30.232Z,45.40
2017-10-17T13:06:01.243Z,44.20
2017-10-17T13:08:30.412Z,44.30
2017-10-17T13:10:59.828Z,43.80
2017-10-17T13:13:29.238Z,43.40
2017-10-17T13:15:57.999Z,42.50
2017-10-17T13:18:27.478Z,42.10
2017-10-17T13:20:57.668Z,44.00
2017-10-17T13:23:27.083Z,43.90
2017-10-17T13:25:56.470Z,43.50
2017-10-17T13:28:25.598Z,45.00
2017-10-17T13:30:55.763Z,46.00
2017-10-17T13:33:25.408Z,46.00
2017-10-17T13:35:55.531Z,45.00
2017-10-17T13:38:26.062Z,46.90
2017-10-17T13:40:55.749Z,45.80
2017-10-17T13:43:25.181Z,44.60
2017-10-17T13:45:54.624Z,45.00
2017-10-17T13:48:23.831Z,45.80
2017-10-17T13:50:53.260Z,44.50
2017-10-17T13:53:22.880Z,44.60
2017-10-17T13:55:52.390Z,45.20
2017-10-17T13:58:21.599Z,44.60
2017-10-17T14:00:51.039Z,45.70
2017-10-17T14:03:20.325Z,45.00
2017-10-17T14:05:50.541Z,46.40
2017-10-17T14:08:20.523Z,46.60
2017-10-17T14:10:49.632Z,46.60
2017-10-17T14:13:19.227Z,46.90
2017-10-17T14:15:48.484Z,47.20
2017-10-17T14:18:18.175Z,46.30
2017-10-17T14:20:48.032Z,47.40
2017-10-17T14:23:17.494Z,47.40
2017-10-17T14:25:48.790Z,48.30
2017-10-17T14:28:18.188Z,48.40
2017-10-17T14:30:47.600Z,50.20
2017-10-17T14:33:17.026Z,50.80
2017-10-17T14:35:46.446Z,49.90
2017-10-17T14:38:16.666Z,50.60
2017-10-17T14:40:46.843Z,52.40
2017-10-17T14:43:16.260Z,52.40
2017-10-17T14:45:45.658Z,54.30
2017-10-17T14:48:14.870Z,54.80
2017-10-17T14:50:44.287Z,56.70
2017-10-17T14:53:33.728Z,57.90
2017-10-17T14:56:03.299Z,57.70
2017-10-17T14:58:34.266Z,61.00
2017-10-17T15:01:03.699Z,61.00
2017-10-17T15:03:33.114Z,61.10
2017-10-17T15:06:03.443Z,67.40
2017-10-17T15:08:33.567Z,67.20
2017-10-17T15:11:02.810Z,68.00
2017-10-17T15:13:32.027Z,71.30
2017-10-17T15:16:01.284Z,74.90
2017-10-17T15:18:31.454Z,81.20
2017-10-17T15:21:00.729Z,81.20
2017-10-17T15:23:30.121Z,86.50
2017-10-17T15:25:59.575Z,88.40
2017-10-17T15:28:29.036Z,91.40
2017-10-17T15:30:58.744Z,94.30
2017-10-17T15:33:28.182Z,97.90
2017-10-17T15:35:57.630Z,99.90
2017-10-17T15:38:27.787Z,99.90
2017-10-17T15:40:57.212Z,99.90
2017-10-17T15:43:26.621Z,99.90
2017-10-17T15:45:56.033Z,99.90
2017-10-17T15:48:26.212Z,99.90
2017-10-17T15:50:55.653Z,99.90
2017-10-17T15:53:25.824Z,99.90
2017-10-17T15:55:55.254Z,99.90
2017-10-17T15:58:24.968Z,99.90
2017-10-17T16:00:54.417Z,99.90
2017-10-17T16:03:24.452Z,99.90
2017-10-17T16:05:55.538Z,99.90
2017-10-17T16:08:25.940Z,99.90
2017-10-17T16:10:56.400Z,99.90
2017-10-17T16:13:25.838Z,99.90
2017-10-17T16:15:55.288Z,99.90
2017-10-17T16:18:24.727Z,99.90
2017-10-17T16:20:54.134Z,99.90
2017-10-17T16:23:23.567Z,99.90
2017-10-17T16:25:53.795Z,99.90
2017-10-17T16:28:23.964Z,99.90
2017-10-17T16:30:53.399Z,99.90
2017-10-17T16:33:22.855Z,99.90
2017-10-17T16:35:52.270Z,99.90
2017-10-17T16:38:21.514Z,99.90
2017-10-17T16:40:51.725Z,99.90
2017-10-17T16:43:21.921Z,99.90
2017-10-17T16:45:51.341Z,99.90
2017-10-17T16:48:20.764Z,99.90
2017-10-17T16:50:50.841Z,99.90
2017-10-17T16:53:21.329Z,99.90
2017-10-17T16:55:51.493Z,99.90
2017-10-17T16:58:20.963Z,99.90
2017-10-17T17:00:50.630Z,99.90
2017-10-17T17:03:20.037Z,99.90
2017-10-17T17:05:49.535Z,99.90
2017-10-17T17:08:18.990Z,99.90
2017-10-17T17:10:48.402Z,99.90
2017-10-17T17:13:17.879Z,99.90
2017-10-17T17:15:48.077Z,99.90
2017-10-17T17:18:18.067Z,99.90
2017-10-17T17:20:47.482Z,99.90
2017-10-17T17:23:16.885Z,99.90
2017-10-17T17:25:46.342Z,99.90
2017-10-17T17:28:15.803Z,99.90
2017-10-17T17:30:45.007Z,99.90
2017-10-17T17:33:14.438Z,99.90
2017-10-17T17:35:43.857Z,99.90
2017-10-17T17:38:13.284Z,99.90
2017-10-17T17:40:42.734Z,99.90
2017-10-17T17:43:12.906Z,99.90
2017-10-17T17:45:42.033Z,99.90
2017-10-17T17:48:11.488Z,99.90
2017-10-17T17:50:40.952Z,99.90
2017-10-17T17:53:10.395Z,99.90
2017-10-17T17:55:39.803Z,99.90
2017-10-17T17:58:09.221Z,99.90
2017-10-17T18:00:37.996Z,99.90
2017-10-17T18:03:06.504Z,99.90
2017-10-17T18:05:35.915Z,99.90
2017-10-17T18:08:05.760Z,99.90
2017-10-17T18:10:35.863Z,99.90
2017-10-17T18:13:05.273Z,99.90
2017-10-17T18:15:34.755Z,99.90
2017-10-17T18:18:04.197Z,99.90
2017-10-17T18:20:34.219Z,99.90
2017-10-17T18:23:04.413Z,99.90
2017-10-17T18:25:33.852Z,99.90
2017-10-17T18:28:03.278Z,99.90
2017-10-17T18:30:33.033Z,99.90
2017-10-17T18:33:02.256Z,99.90
2017-10-17T18:35:32.258Z,99.90
2017-10-17T18:38:01.703Z,99.90
2017-10-17T18:40:31.123Z,99.90
2017-10-17T18:43:00.557Z,99.90
2017-10-17T18:45:30.006Z,99.90
2017-10-17T18:47:59.465Z,99.90
2017-10-17T18:50:28.879Z,99.90
2017-10-17T18:52:58.322Z,99.90
2017-10-17T18:55:27.714Z,99.90
2017-10-17T18:57:57.215Z,99.90
2017-10-17T19:00:27.502Z,99.90
2017-10-17T19:02:56.743Z,99.90
2017-10-17T19:05:26.175Z,99.90
2017-10-17T19:07:55.635Z,99.90
2017-10-17T19:10:25.854Z,99.90
2017-10-17T19:12:56.046Z,99.90
2017-10-17T19:15:25.636Z,99.90
2017-10-17T19:17:55.093Z,99.90
2017-10-17T19:20:25.338Z,99.90
2017-10-17T19:22:54.791Z,99.90
2017-10-17T19:25:24.227Z,99.90
2017-10-17T19:27:54.427Z,99.90
2017-10-17T19:30:23.466Z,99.90
2017-10-17T19:32:52.938Z,99.90
2017-10-17T19:35:22.352Z,99.90
2017-10-17T19:37:52.535Z,99.90
2017-10-17T19:40:21.976Z,99.90
2017-10-17T19:42:52.183Z,99.90
2017-10-17T19:45:22.914Z,99.90
2017-10-17T19:47:52.658Z,99.90
2017-10-17T19:50:22.072Z,99.90
2017-10-17T19:52:52.546Z,99.90
2017-10-17T19:55:21.816Z,99.90
2017-10-17T19:57:52.180Z,99.90
2017-10-17T20:00:20.764Z,99.90
2017-10-17T20:02:50.057Z,99.90
2017-10-17T20:05:19.467Z,99.90
2017-10-17T20:07:48.832Z,99.90
2017-10-17T20:10:18.983Z,99.90
2017-10-17T20:12:48.467Z,99.90
2017-10-17T20:15:19.051Z,99.90
2017-10-17T20:17:49.256Z,99.90
2017-10-17T20:20:18.594Z,99.90
2017-10-17T20:22:48.243Z,99.90
2017-10-17T20:25:17.511Z,99.90
2017-10-17T20:27:47.962Z,99.90
2017-10-17T20:30:17.318Z,99.90
2017-10-17T20:32:47.000Z,99.90
2017-10-17T20:35:16.075Z,99.90
2017-10-17T20:37:45.554Z,99.90
2017-10-17T20:40:14.957Z,99.90
2017-10-17T20:42:45.430Z,99.90
2017-10-17T20:45:14.766Z,99.90
2017-10-17T20:47:44.125Z,99.90
2017-10-17T20:50:13.556Z,99.90
2017-10-17T20:52:42.583Z,99.90
2017-10-17T20:55:12.511Z,99.90
2017-10-17T20:57:42.246Z,99.90
2017-10-17T21:00:11.248Z,99.90
2017-10-17T21:02:40.561Z,99.90
2017-10-17T21:05:10.271Z,99.90
2017-10-17T21:07:39.608Z,99.90
2017-10-17T21:10:09.580Z,99.90
2017-10-17T21:12:39.266Z,99.90
2017-10-17T21:15:08.966Z,99.90
2017-10-17T21:17:38.671Z,99.90
2017-10-17T21:20:08.407Z,99.90
2017-10-17T21:22:38.106Z,99.90
2017-10-17T21:25:07.825Z,99.90
2017-10-17T21:27:37.141Z,99.90
2017-10-17T21:30:06.469Z,99.90
2017-10-17T21:32:35.998Z,99.90
2017-10-17T21:35:05.684Z,99.90
2017-10-17T21:37:35.402Z,99.90
2017-10-17T21:40:04.924Z,99.90
2017-10-17T21:42:34.395Z,99.90
2017-10-17T21:45:04.109Z,99.90
2017-10-17T21:47:33.800Z,99.90
2017-10-17T21:50:03.520Z,99.90
2017-10-17T21:52:33.203Z,99.90
2017-10-17T21:55:02.920Z,99.90
2017-10-17T21:57:32.416Z,99.90
2017-10-17T22:00:01.917Z,99.90
2017-10-17T22:02:31.449Z,99.90
2017-10-17T22:05:00.959Z,99.90
2017-10-17T22:07:30.694Z,99.90
2017-10-17T22:10:00.383Z,99.90
2017-10-17T22:12:29.884Z,99.90
2017-10-17T22:14:59.606Z,99.90
2017-10-17T22:17:29.081Z,99.90
2017-10-17T22:19:58.826Z,99.90
2017-10-17T22:22:28.522Z,99.90
2017-10-17T22:24:58.227Z,99.90
2017-10-17T22:27:27.930Z,99.90
2017-10-17T22:29:57.657Z,99.90
2017-10-17T22:32:27.362Z,99.90
2017-10-17T22:34:57.046Z,99.90
2017-10-17T22:37:26.723Z,99.90
2017-10-17T22:39:56.456Z,99.90
2017-10-17T22:42:26.331Z,99.90
2017-10-17T22:44:55.854Z,99.90
2017-10-17T22:47:25.535Z,99.90
2017-10-17T22:49:54.829Z,99.90
2017-10-17T22:52:24.331Z,99.90
2017-10-17T22:54:53.827Z,99.90
2017-10-17T22:57:23.556Z,99.90
2017-10-17T22:59:52.879Z,99.90
2017-10-17T23:02:22.227Z,99.90
2017-10-17T23:04:51.837Z,99.90
2017-10-17T23:07:21.222Z,99.90
2017-10-17T23:09:50.701Z,99.90
2017-10-17T23:12:20.242Z,99.90
2017-10-17T23:14:50.689Z,99.90
2017-10-17T23:17:31.469Z,99.90
2017-10-17T23:20:12.180Z,99.90
2017-10-17T23:22:42.478Z,99.90
2017-10-17T23:25:12.154Z,99.90
2017-10-17T23:27:41.662Z,99.90
2017-10-17T23:30:11.015Z,99.90
2017-10-17T23:32:40.750Z,99.90
2017-10-17T23:35:11.187Z,99.90
2017-10-17T23:37:40.950Z,99.90
2017-10-17T23:40:10.436Z,99.90
2017-10-17T23:42:39.940Z,99.90
2017-10-17T23:45:09.671Z,99.90
2017-10-17T23:47:39.398Z,99.90
2017-10-17T23:50:09.122Z,99.90
2017-10-17T23:52:39.572Z,99.90
2017-10-17T23:55:09.279Z,99.90
2017-10-17T23:57:38.957Z,99.90
